sensor_id;sensor_type;location;lat;lon;timestamp;pressure;altitude;pressure_sealevel;temperature;humidity
49102;BME280;34913;47.520;19.186;2023-03-14T00:00:13;99164.59;;;6.88;53.61
49102;BME280;34913;47.520;19.186;2023-03-14T00:02:39;99160.16;;;6.88;54.32
49102;BME280;34913;47.520;19.186;2023-03-14T00:05:06;99145.72;;;6.92;54.15
49102;BME280;34913;47.520;19.186;2023-03-14T00:07:38;99147.16;;;6.96;54.22
49102;BME280;34913;47.520;19.186;2023-03-14T00:10:08;99143.16;;;7.02;54.37
49102;BME280;34913;47.520;19.186;2023-03-14T00:12:34;99130.59;;;7.06;53.84
49102;BME280;34913;47.520;19.186;2023-03-14T00:14:59;99124.06;;;7.10;53.87
49102;BME280;34913;47.520;19.186;2023-03-14T00:17:26;99120.81;;;7.17;53.77
49102;BME280;34913;47.520;19.186;2023-03-14T00:19:52;99125.31;;;7.26;53.41
49102;BME280;34913;47.520;19.186;2023-03-14T00:22:20;99119.22;;;7.26;53.34
49102;BME280;34913;47.520;19.186;2023-03-14T00:24:45;99116.56;;;7.26;53.11
49102;BME280;34913;47.520;19.186;2023-03-14T00:27:11;99106.09;;;7.36;53.21
49102;BME280;34913;47.520;19.186;2023-03-14T00:29:36;99104.28;;;7.36;52.90
49102;BME280;34913;47.520;19.186;2023-03-14T00:32:01;99098.88;;;7.38;53.34
49102;BME280;34913;47.520;19.186;2023-03-14T00:34:31;99092.16;;;7.34;53.59
49102;BME280;34913;47.520;19.186;2023-03-14T00:36:57;99087.16;;;7.31;53.05
49102;BME280;34913;47.520;19.186;2023-03-14T00:39:23;99088.69;;;7.33;53.77
49102;BME280;34913;47.520;19.186;2023-03-14T00:41:48;99071.31;;;7.31;53.29
49102;BME280;34913;47.520;19.186;2023-03-14T00:44:13;99077.50;;;7.41;53.06
49102;BME280;34913;47.520;19.186;2023-03-14T00:46:39;99070.88;;;7.46;52.99
49102;BME280;34913;47.520;19.186;2023-03-14T00:49:04;99067.22;;;7.38;53.33
49102;BME280;34913;47.520;19.186;2023-03-14T00:51:30;99074.16;;;7.39;53.38
49102;BME280;34913;47.520;19.186;2023-03-14T00:53:55;99065.91;;;7.32;53.36
49102;BME280;34913;47.520;19.186;2023-03-14T00:56:21;99058.13;;;7.31;53.93
49102;BME280;34913;47.520;19.186;2023-03-14T00:58:46;99059.34;;;7.26;53.53
49102;BME280;34913;47.520;19.186;2023-03-14T01:01:15;99067.97;;;7.28;53.64
49102;BME280;34913;47.520;19.186;2023-03-14T01:03:41;99069.53;;;7.31;53.74
49102;BME280;34913;47.520;19.186;2023-03-14T01:06:15;99071.31;;;7.31;53.79
49102;BME280;34913;47.520;19.186;2023-03-14T01:08:41;99063.78;;;7.26;54.55
49102;BME280;34913;47.520;19.186;2023-03-14T01:11:09;99057.09;;;7.22;54.05
49102;BME280;34913;47.520;19.186;2023-03-14T01:13:35;99060.09;;;7.17;54.22
49102;BME280;34913;47.520;19.186;2023-03-14T01:16:02;99040.09;;;7.15;54.11
49102;BME280;34913;47.520;19.186;2023-03-14T01:18:29;99036.03;;;7.11;54.68
49102;BME280;34913;47.520;19.186;2023-03-14T01:20:54;99050.72;;;7.24;54.20
49102;BME280;34913;47.520;19.186;2023-03-14T01:23:20;99053.94;;;7.28;54.77
49102;BME280;34913;47.520;19.186;2023-03-14T01:25:45;99039.97;;;7.16;54.96
49102;BME280;34913;47.520;19.186;2023-03-14T01:28:11;99034.13;;;7.13;54.94
49102;BME280;34913;47.520;19.186;2023-03-14T01:30:36;99027.69;;;7.06;55.38
49102;BME280;34913;47.520;19.186;2023-03-14T01:33:02;99024.78;;;7.09;55.16
49102;BME280;34913;47.520;19.186;2023-03-14T01:35:27;99006.13;;;7.00;55.00
49102;BME280;34913;47.520;19.186;2023-03-14T01:37:52;99004.25;;;7.12;55.17
49102;BME280;34913;47.520;19.186;2023-03-14T01:40:18;99003.66;;;7.09;54.79
49102;BME280;34913;47.520;19.186;2023-03-14T01:42:57;99004.16;;;7.03;55.47
49102;BME280;34913;47.520;19.186;2023-03-14T01:48:26;98997.25;;;6.81;55.89
49102;BME280;34913;47.520;19.186;2023-03-14T01:50:53;98994.97;;;6.76;56.30
49102;BME280;34913;47.520;19.186;2023-03-14T01:53:19;98980.69;;;6.79;56.39
49102;BME280;34913;47.520;19.186;2023-03-14T01:55:48;98975.75;;;6.85;56.26
49102;BME280;34913;47.520;19.186;2023-03-14T01:58:15;98970.28;;;6.77;56.61
49102;BME280;34913;47.520;19.186;2023-03-14T02:00:41;98959.28;;;6.72;56.38
49102;BME280;34913;47.520;19.186;2023-03-14T02:03:14;98965.63;;;6.69;56.72
49102;BME280;34913;47.520;19.186;2023-03-14T02:05:42;98962.84;;;6.71;56.59
49102;BME280;34913;47.520;19.186;2023-03-14T02:08:11;98958.31;;;6.73;56.91
49102;BME280;34913;47.520;19.186;2023-03-14T02:10:43;98963.41;;;6.65;57.18
49102;BME280;34913;47.520;19.186;2023-03-14T02:13:10;98944.84;;;6.55;57.33
49102;BME280;34913;47.520;19.186;2023-03-14T02:15:36;98933.47;;;6.55;57.36
49102;BME280;34913;47.520;19.186;2023-03-14T02:18:03;98922.81;;;6.56;57.58
49102;BME280;34913;47.520;19.186;2023-03-14T02:23:32;98914.56;;;6.70;57.39
49102;BME280;34913;47.520;19.186;2023-03-14T02:26:08;98917.66;;;6.76;57.31
49102;BME280;34913;47.520;19.186;2023-03-14T02:28:36;98906.91;;;6.67;57.26
49102;BME280;34913;47.520;19.186;2023-03-14T02:31:01;98909.50;;;6.58;57.71
49102;BME280;34913;47.520;19.186;2023-03-14T02:33:27;98899.47;;;6.52;58.01
49102;BME280;34913;47.520;19.186;2023-03-14T02:36:01;98910.78;;;6.42;58.38
49102;BME280;34913;47.520;19.186;2023-03-14T02:40:56;98893.72;;;6.47;58.73
49102;BME280;34913;47.520;19.186;2023-03-14T02:43:22;98891.53;;;6.52;58.62
49102;BME280;34913;47.520;19.186;2023-03-14T02:45:49;98886.28;;;6.52;58.82
49102;BME280;34913;47.520;19.186;2023-03-14T02:48:19;98879.06;;;6.54;58.82
49102;BME280;34913;47.520;19.186;2023-03-14T02:50:47;98881.84;;;6.52;58.89
49102;BME280;34913;47.520;19.186;2023-03-14T02:53:19;98876.88;;;6.59;59.00
49102;BME280;34913;47.520;19.186;2023-03-14T02:55:49;98883.69;;;6.61;59.14
49102;BME280;34913;47.520;19.186;2023-03-14T02:58:15;98876.84;;;6.49;59.21
49102;BME280;34913;47.520;19.186;2023-03-14T03:00:41;98869.56;;;6.41;59.55
49102;BME280;34913;47.520;19.186;2023-03-14T03:03:07;98867.44;;;6.35;60.07
49102;BME280;34913;47.520;19.186;2023-03-14T03:05:32;98863.47;;;6.41;60.00
49102;BME280;34913;47.520;19.186;2023-03-14T03:07:58;98845.19;;;6.49;60.29
49102;BME280;34913;47.520;19.186;2023-03-14T03:10:24;98846.47;;;6.55;59.90
49102;BME280;34913;47.520;19.186;2023-03-14T03:12:50;98850.56;;;6.68;60.03
49102;BME280;34913;47.520;19.186;2023-03-14T03:15:16;98851.91;;;6.84;59.61
49102;BME280;34913;47.520;19.186;2023-03-14T03:17:42;98853.41;;;7.07;58.77
49102;BME280;34913;47.520;19.186;2023-03-14T03:20:08;98849.72;;;7.19;58.62
49102;BME280;34913;47.520;19.186;2023-03-14T03:22:35;98843.63;;;7.19;58.67
49102;BME280;34913;47.520;19.186;2023-03-14T03:25:00;98846.13;;;7.20;58.49
49102;BME280;34913;47.520;19.186;2023-03-14T03:27:26;98843.19;;;7.23;58.55
49102;BME280;34913;47.520;19.186;2023-03-14T03:29:51;98842.38;;;7.33;58.26
49102;BME280;34913;47.520;19.186;2023-03-14T03:32:16;98847.13;;;7.39;57.96
49102;BME280;34913;47.520;19.186;2023-03-14T03:34:42;98847.44;;;7.45;57.86
49102;BME280;34913;47.520;19.186;2023-03-14T03:37:07;98839.22;;;7.48;57.86
49102;BME280;34913;47.520;19.186;2023-03-14T03:39:33;98840.91;;;7.49;57.64
49102;BME280;34913;47.520;19.186;2023-03-14T03:41:58;98837.56;;;7.47;57.44
49102;BME280;34913;47.520;19.186;2023-03-14T03:44:24;98822.41;;;7.40;57.94
49102;BME280;34913;47.520;19.186;2023-03-14T03:46:49;98827.13;;;7.36;58.16
49102;BME280;34913;47.520;19.186;2023-03-14T03:49:14;98827.53;;;7.32;58.17
49102;BME280;34913;47.520;19.186;2023-03-14T03:51:40;98831.00;;;7.32;58.01
49102;BME280;34913;47.520;19.186;2023-03-14T03:54:06;98828.22;;;7.34;58.43
49102;BME280;34913;47.520;19.186;2023-03-14T03:56:31;98834.78;;;7.39;58.38
49102;BME280;34913;47.520;19.186;2023-03-14T03:58:57;98829.34;;;7.41;58.11
49102;BME280;34913;47.520;19.186;2023-03-14T04:01:22;98835.06;;;7.36;58.15
49102;BME280;34913;47.520;19.186;2023-03-14T04:03:48;98837.41;;;7.39;58.22
49102;BME280;34913;47.520;19.186;2023-03-14T04:06:13;98842.00;;;7.47;57.70
49102;BME280;34913;47.520;19.186;2023-03-14T04:08:39;98840.22;;;7.47;57.79
49102;BME280;34913;47.520;19.186;2023-03-14T04:11:06;98831.75;;;7.44;58.10
49102;BME280;34913;47.520;19.186;2023-03-14T04:13:32;98822.94;;;7.34;58.39
49102;BME280;34913;47.520;19.186;2023-03-14T04:15:58;98824.19;;;7.30;58.80
49102;BME280;34913;47.520;19.186;2023-03-14T04:18:24;98824.50;;;7.36;58.30
49102;BME280;34913;47.520;19.186;2023-03-14T04:20:56;98821.56;;;7.30;58.72
49102;BME280;34913;47.520;19.186;2023-03-14T04:23:23;98804.59;;;7.22;58.55
49102;BME280;34913;47.520;19.186;2023-03-14T04:25:53;98795.00;;;7.21;58.43
49102;BME280;34913;47.520;19.186;2023-03-14T04:28:18;98795.41;;;7.26;58.71
49102;BME280;34913;47.520;19.186;2023-03-14T04:30:44;98801.63;;;7.16;59.02
49102;BME280;34913;47.520;19.186;2023-03-14T04:33:09;98798.47;;;7.22;58.81
49102;BME280;34913;47.520;19.186;2023-03-14T04:35:36;98794.56;;;7.26;58.84
49102;BME280;34913;47.520;19.186;2023-03-14T04:38:01;98810.84;;;7.31;58.35
49102;BME280;34913;47.520;19.186;2023-03-14T04:40:28;98798.50;;;7.41;58.25
49102;BME280;34913;47.520;19.186;2023-03-14T04:42:53;98790.19;;;7.46;58.07
49102;BME280;34913;47.520;19.186;2023-03-14T04:45:18;98792.00;;;7.45;58.07
49102;BME280;34913;47.520;19.186;2023-03-14T04:47:44;98795.31;;;7.47;57.84
49102;BME280;34913;47.520;19.186;2023-03-14T04:50:10;98796.44;;;7.45;57.69
49102;BME280;34913;47.520;19.186;2023-03-14T04:52:36;98800.59;;;7.47;57.70
49102;BME280;34913;47.520;19.186;2023-03-14T04:55:01;98809.94;;;7.61;57.18
49102;BME280;34913;47.520;19.186;2023-03-14T04:57:27;98805.34;;;7.63;56.96
49102;BME280;34913;47.520;19.186;2023-03-14T04:59:52;98810.78;;;7.62;56.58
49102;BME280;34913;47.520;19.186;2023-03-14T05:02:18;98801.06;;;7.72;56.08
49102;BME280;34913;47.520;19.186;2023-03-14T05:04:43;98804.25;;;7.75;56.02
49102;BME280;34913;47.520;19.186;2023-03-14T05:07:09;98806.06;;;7.84;55.63
49102;BME280;34913;47.520;19.186;2023-03-14T05:09:34;98807.88;;;7.84;55.57
49102;BME280;34913;47.520;19.186;2023-03-14T05:12:00;98807.72;;;7.95;55.08
49102;BME280;34913;47.520;19.186;2023-03-14T05:14:25;98809.13;;;7.99;55.16
49102;BME280;34913;47.520;19.186;2023-03-14T05:16:50;98792.84;;;8.04;54.68
49102;BME280;34913;47.520;19.186;2023-03-14T05:19:16;98793.69;;;8.14;54.22
49102;BME280;34913;47.520;19.186;2023-03-14T05:21:41;98794.78;;;8.11;54.67
49102;BME280;34913;47.520;19.186;2023-03-14T05:24:07;98782.25;;;8.13;54.59
49102;BME280;34913;47.520;19.186;2023-03-14T05:26:32;98784.50;;;8.08;54.64
49102;BME280;34913;47.520;19.186;2023-03-14T05:28:58;98786.72;;;8.13;54.16
49102;BME280;34913;47.520;19.186;2023-03-14T05:31:23;98764.19;;;8.19;54.05
49102;BME280;34913;47.520;19.186;2023-03-14T05:33:48;98770.19;;;8.11;54.53
49102;BME280;34913;47.520;19.186;2023-03-14T05:36:14;98771.44;;;8.17;53.90
49102;BME280;34913;47.520;19.186;2023-03-14T05:38:39;98774.72;;;8.28;53.71
49102;BME280;34913;47.520;19.186;2023-03-14T05:41:05;98773.06;;;8.37;53.47
49102;BME280;34913;47.520;19.186;2023-03-14T05:43:30;98779.22;;;8.37;53.41
49102;BME280;34913;47.520;19.186;2023-03-14T05:45:56;98780.84;;;8.48;53.36
49102;BME280;34913;47.520;19.186;2023-03-14T05:48:21;98771.94;;;8.49;53.24
49102;BME280;34913;47.520;19.186;2023-03-14T05:50:47;98767.91;;;8.55;52.99
49102;BME280;34913;47.520;19.186;2023-03-14T05:53:13;98766.78;;;8.57;53.29
49102;BME280;34913;47.520;19.186;2023-03-14T05:55:39;98776.78;;;8.63;52.80
49102;BME280;34913;47.520;19.186;2023-03-14T05:58:04;98776.84;;;8.81;52.59
49102;BME280;34913;47.520;19.186;2023-03-14T06:00:30;98771.91;;;8.96;51.63
49102;BME280;34913;47.520;19.186;2023-03-14T06:02:55;98763.03;;;9.15;51.17
49102;BME280;34913;47.520;19.186;2023-03-14T06:05:21;98773.81;;;9.31;51.13
49102;BME280;34913;47.520;19.186;2023-03-14T06:07:46;98768.84;;;9.46;50.86
49102;BME280;34913;47.520;19.186;2023-03-14T06:10:12;98766.22;;;9.64;50.17
49102;BME280;34913;47.520;19.186;2023-03-14T06:12:37;98765.75;;;9.86;49.67
49102;BME280;34913;47.520;19.186;2023-03-14T06:15:03;98773.38;;;10.07;48.71
49102;BME280;34913;47.520;19.186;2023-03-14T06:17:28;98767.69;;;10.20;48.19
49102;BME280;34913;47.520;19.186;2023-03-14T06:19:54;98754.81;;;10.43;48.28
49102;BME280;34913;47.520;19.186;2023-03-14T06:22:19;98760.75;;;10.71;47.04
49102;BME280;34913;47.520;19.186;2023-03-14T06:24:45;98760.16;;;10.85;46.76
49102;BME280;34913;47.520;19.186;2023-03-14T06:27:10;98765.06;;;11.06;46.48
49102;BME280;34913;47.520;19.186;2023-03-14T06:29:36;98769.09;;;11.18;45.80
49102;BME280;34913;47.520;19.186;2023-03-14T06:32:01;98762.34;;;11.32;46.49
49102;BME280;34913;47.520;19.186;2023-03-14T06:34:27;98765.88;;;11.49;45.02
49102;BME280;34913;47.520;19.186;2023-03-14T06:36:52;98761.06;;;11.60;45.60
49102;BME280;34913;47.520;19.186;2023-03-14T06:39:17;98770.75;;;11.69;45.12
49102;BME280;34913;47.520;19.186;2023-03-14T06:41:43;98759.25;;;11.69;44.97
49102;BME280;34913;47.520;19.186;2023-03-14T06:44:08;98765.41;;;11.61;44.96
49102;BME280;34913;47.520;19.186;2023-03-14T06:46:34;98772.69;;;11.51;44.96
49102;BME280;34913;47.520;19.186;2023-03-14T06:48:59;98777.53;;;11.56;45.55
49102;BME280;34913;47.520;19.186;2023-03-14T06:51:25;98770.84;;;11.52;44.87
49102;BME280;34913;47.520;19.186;2023-03-14T06:53:50;98768.53;;;11.57;44.77
49102;BME280;34913;47.520;19.186;2023-03-14T06:56:16;98761.56;;;11.56;45.08
49102;BME280;34913;47.520;19.186;2023-03-14T06:58:41;98767.22;;;11.61;44.88
49102;BME280;34913;47.520;19.186;2023-03-14T07:01:23;98765.91;;;11.65;45.14
49102;BME280;34913;47.520;19.186;2023-03-14T07:03:49;98775.19;;;11.69;44.90
49102;BME280;34913;47.520;19.186;2023-03-14T07:06:14;98774.88;;;11.64;44.96
49102;BME280;34913;47.520;19.186;2023-03-14T07:08:40;98772.22;;;11.64;45.37
49102;BME280;34913;47.520;19.186;2023-03-14T07:11:07;98771.69;;;11.60;45.40
49102;BME280;34913;47.520;19.186;2023-03-14T07:13:32;98776.72;;;11.71;45.59
49102;BME280;34913;47.520;19.186;2023-03-14T07:15:58;98759.78;;;11.72;45.29
49102;BME280;34913;47.520;19.186;2023-03-14T07:18:23;98757.81;;;11.83;45.17
49102;BME280;34913;47.520;19.186;2023-03-14T07:20:49;98755.50;;;11.96;45.25
49102;BME280;34913;47.520;19.186;2023-03-14T07:23:14;98756.50;;;12.03;45.42
49102;BME280;34913;47.520;19.186;2023-03-14T07:25:39;98766.31;;;12.19;45.32
49102;BME280;34913;47.520;19.186;2023-03-14T07:28:05;98760.63;;;12.22;44.99
49102;BME280;34913;47.520;19.186;2023-03-14T07:30:30;98753.66;;;12.37;44.99
49102;BME280;34913;47.520;19.186;2023-03-14T07:32:56;98757.78;;;12.40;44.78
49102;BME280;34913;47.520;19.186;2023-03-14T07:35:21;98750.94;;;12.53;44.29
49102;BME280;34913;47.520;19.186;2023-03-14T07:37:47;98762.56;;;12.69;44.25
49102;BME280;34913;47.520;19.186;2023-03-14T07:40:12;98751.56;;;12.80;43.86
49102;BME280;34913;47.520;19.186;2023-03-14T07:42:43;98750.16;;;13.00;43.80
49102;BME280;34913;47.520;19.186;2023-03-14T07:45:09;98751.25;;;13.22;43.87
49102;BME280;34913;47.520;19.186;2023-03-14T07:47:35;98748.97;;;13.42;43.22
49102;BME280;34913;47.520;19.186;2023-03-14T07:50:03;98742.56;;;13.59;42.72
49102;BME280;34913;47.520;19.186;2023-03-14T07:52:29;98742.50;;;13.67;42.62
49102;BME280;34913;47.520;19.186;2023-03-14T07:54:54;98747.94;;;13.74;42.28
49102;BME280;34913;47.520;19.186;2023-03-14T07:57:20;98748.13;;;13.73;42.33
49102;BME280;34913;47.520;19.186;2023-03-14T07:59:45;98743.03;;;13.86;42.66
49102;BME280;34913;47.520;19.186;2023-03-14T08:02:12;98733.13;;;13.94;42.33
49102;BME280;34913;47.520;19.186;2023-03-14T08:04:39;98717.44;;;14.00;42.63
49102;BME280;34913;47.520;19.186;2023-03-14T08:07:04;98714.31;;;14.11;42.11
49102;BME280;34913;47.520;19.186;2023-03-14T08:09:30;98718.03;;;14.24;41.54
49102;BME280;34913;47.520;19.186;2023-03-14T08:11:55;98710.88;;;14.40;41.87
49102;BME280;34913;47.520;19.186;2023-03-14T08:14:21;98715.44;;;14.54;41.62
49102;BME280;34913;47.520;19.186;2023-03-14T08:16:49;98704.38;;;14.72;41.24
49102;BME280;34913;47.520;19.186;2023-03-14T08:19:15;98698.00;;;14.88;40.77
49102;BME280;34913;47.520;19.186;2023-03-14T08:21:40;98693.69;;;15.01;40.83
49102;BME280;34913;47.520;19.186;2023-03-14T08:24:06;98689.88;;;15.11;40.01
49102;BME280;34913;47.520;19.186;2023-03-14T08:26:31;98686.47;;;15.17;39.66
49102;BME280;34913;47.520;19.186;2023-03-14T08:28:56;98686.69;;;15.22;41.00
49102;BME280;34913;47.520;19.186;2023-03-14T08:31:22;98692.00;;;15.36;39.87
49102;BME280;34913;47.520;19.186;2023-03-14T08:33:47;98699.00;;;15.38;39.54
49102;BME280;34913;47.520;19.186;2023-03-14T08:36:13;98688.94;;;15.40;39.54
49102;BME280;34913;47.520;19.186;2023-03-14T08:38:38;98689.91;;;15.53;39.59
49102;BME280;34913;47.520;19.186;2023-03-14T08:41:04;98695.38;;;15.81;39.70
49102;BME280;34913;47.520;19.186;2023-03-14T08:43:30;98687.56;;;16.08;38.78
49102;BME280;34913;47.520;19.186;2023-03-14T08:46:00;98682.59;;;16.33;38.36
49102;BME280;34913;47.520;19.186;2023-03-14T08:48:25;98678.22;;;16.53;37.57
49102;BME280;34913;47.520;19.186;2023-03-14T08:50:51;98682.59;;;16.61;37.43
49102;BME280;34913;47.520;19.186;2023-03-14T08:53:16;98676.47;;;16.73;37.14
49102;BME280;34913;47.520;19.186;2023-03-14T08:55:43;98677.81;;;16.91;36.68
49102;BME280;34913;47.520;19.186;2023-03-14T08:58:08;98681.81;;;17.08;36.09
49102;BME280;34913;47.520;19.186;2023-03-14T09:00:34;98681.00;;;17.08;35.77
49102;BME280;34913;47.520;19.186;2023-03-14T09:02:59;98662.22;;;17.08;36.05
49102;BME280;34913;47.520;19.186;2023-03-14T09:05:24;98661.88;;;17.37;35.64
49102;BME280;34913;47.520;19.186;2023-03-14T09:07:50;98661.69;;;17.39;35.77
49102;BME280;34913;47.520;19.186;2023-03-14T09:10:16;98656.53;;;17.30;35.41
49102;BME280;34913;47.520;19.186;2023-03-14T09:12:41;98672.16;;;17.27;35.86
49102;BME280;34913;47.520;19.186;2023-03-14T09:15:07;98660.66;;;17.40;35.45
49102;BME280;34913;47.520;19.186;2023-03-14T09:17:33;98656.97;;;17.61;35.56
49102;BME280;34913;47.520;19.186;2023-03-14T09:19:58;98659.50;;;17.75;35.34
49102;BME280;34913;47.520;19.186;2023-03-14T09:22:24;98646.09;;;17.89;35.51
49102;BME280;34913;47.520;19.186;2023-03-14T09:24:49;98647.53;;;17.91;35.16
49102;BME280;34913;47.520;19.186;2023-03-14T09:27:15;98639.03;;;18.01;34.96
49102;BME280;34913;47.520;19.186;2023-03-14T09:29:40;98638.22;;;18.13;34.98
49102;BME280;34913;47.520;19.186;2023-03-14T09:32:06;98637.78;;;18.30;34.45
49102;BME280;34913;47.520;19.186;2023-03-14T09:34:31;98641.50;;;18.16;35.01
49102;BME280;34913;47.520;19.186;2023-03-14T09:36:56;98635.75;;;18.25;34.72
49102;BME280;34913;47.520;19.186;2023-03-14T09:39:22;98624.78;;;18.13;34.80
49102;BME280;34913;47.520;19.186;2023-03-14T09:41:51;98618.16;;;18.23;35.24
49102;BME280;34913;47.520;19.186;2023-03-14T09:44:30;98619.81;;;18.30;34.99
49102;BME280;34913;47.520;19.186;2023-03-14T09:47:01;98621.88;;;18.22;35.16
49102;BME280;34913;47.520;19.186;2023-03-14T09:49:30;98615.69;;;18.34;35.71
49102;BME280;34913;47.520;19.186;2023-03-14T09:52:00;98608.56;;;18.60;35.18
49102;BME280;34913;47.520;19.186;2023-03-14T09:54:36;98602.56;;;18.64;34.74
49102;BME280;34913;47.520;19.186;2023-03-14T09:57:04;98602.75;;;18.76;34.91
49102;BME280;34913;47.520;19.186;2023-03-14T09:59:31;98592.69;;;19.03;34.79
49102;BME280;34913;47.520;19.186;2023-03-14T10:02:00;98582.91;;;19.15;34.54
49102;BME280;34913;47.520;19.186;2023-03-14T10:04:28;98586.59;;;19.21;34.64
49102;BME280;34913;47.520;19.186;2023-03-14T10:06:55;98583.50;;;19.17;34.51
49102;BME280;34913;47.520;19.186;2023-03-14T10:09:22;98576.03;;;19.19;34.57
49102;BME280;34913;47.520;19.186;2023-03-14T10:11:55;98572.50;;;19.19;34.15
49102;BME280;34913;47.520;19.186;2023-03-14T10:14:33;98574.69;;;19.35;34.58
49102;BME280;34913;47.520;19.186;2023-03-14T10:17:06;98559.03;;;19.25;33.97
49102;BME280;34913;47.520;19.186;2023-03-14T10:19:32;98541.94;;;19.45;34.85
49102;BME280;34913;47.520;19.186;2023-03-14T10:22:01;98544.88;;;19.68;34.26
49102;BME280;34913;47.520;19.186;2023-03-14T10:24:34;98535.44;;;19.52;34.42
49102;BME280;34913;47.520;19.186;2023-03-14T10:27:05;98533.97;;;19.57;34.53
49102;BME280;34913;47.520;19.186;2023-03-14T10:29:32;98525.22;;;19.68;34.12
49102;BME280;34913;47.520;19.186;2023-03-14T10:32:01;98509.00;;;19.43;33.71
49102;BME280;34913;47.520;19.186;2023-03-14T10:34:38;98507.09;;;19.25;35.23
49102;BME280;34913;47.520;19.186;2023-03-14T10:37:23;98518.34;;;19.40;34.62
49102;BME280;34913;47.520;19.186;2023-03-14T10:39:53;98512.59;;;19.37;34.56
49102;BME280;34913;47.520;19.186;2023-03-14T10:42:24;98499.63;;;19.27;35.24
49102;BME280;34913;47.520;19.186;2023-03-14T10:45:01;98505.38;;;19.06;34.90
49102;BME280;34913;47.520;19.186;2023-03-14T10:47:28;98502.06;;;19.04;35.38
49102;BME280;34913;47.520;19.186;2023-03-14T10:49:55;98500.88;;;19.00;35.90
49102;BME280;34913;47.520;19.186;2023-03-14T10:52:28;98490.34;;;18.98;35.80
49102;BME280;34913;47.520;19.186;2023-03-14T10:55:09;98489.94;;;18.94;35.81
49102;BME280;34913;47.520;19.186;2023-03-14T10:57:44;98492.44;;;18.96;35.91
49102;BME280;34913;47.520;19.186;2023-03-14T11:00:21;98497.84;;;18.89;36.14
49102;BME280;34913;47.520;19.186;2023-03-14T11:05:43;98478.28;;;19.07;35.72
49102;BME280;34913;47.520;19.186;2023-03-14T11:08:23;98478.19;;;19.20;35.50
49102;BME280;34913;47.520;19.186;2023-03-14T11:10:54;98483.97;;;19.42;35.49
49102;BME280;34913;47.520;19.186;2023-03-14T11:13:37;98464.59;;;19.59;34.86
49102;BME280;34913;47.520;19.186;2023-03-14T11:16:29;98461.84;;;19.40;35.47
49102;BME280;34913;47.520;19.186;2023-03-14T11:19:31;98464.78;;;19.39;35.29
49102;BME280;34913;47.520;19.186;2023-03-14T11:33:27;98438.41;;;19.91;34.09
49102;BME280;34913;47.520;19.186;2023-03-14T11:38:55;98435.31;;;20.24;32.68
49102;BME280;34913;47.520;19.186;2023-03-14T11:41:43;98431.63;;;20.18;32.41
49102;BME280;34913;47.520;19.186;2023-03-14T11:47:07;98422.69;;;19.69;33.24
49102;BME280;34913;47.520;19.186;2023-03-14T11:49:42;98431.53;;;19.51;34.31
49102;BME280;34913;47.520;19.186;2023-03-14T11:52:27;98406.84;;;19.61;33.70
49102;BME280;34913;47.520;19.186;2023-03-14T11:55:00;98415.75;;;19.55;33.75
49102;BME280;34913;47.520;19.186;2023-03-14T11:57:28;98395.94;;;19.49;33.95
49102;BME280;34913;47.520;19.186;2023-03-14T12:08:44;98379.34;;;20.38;33.20
49102;BME280;34913;47.520;19.186;2023-03-14T12:13:53;98379.28;;;20.44;32.97
49102;BME280;34913;47.520;19.186;2023-03-14T12:16:23;98373.09;;;20.25;32.77
49102;BME280;34913;47.520;19.186;2023-03-14T12:18:52;98368.38;;;20.21;32.92
49102;BME280;34913;47.520;19.186;2023-03-14T12:21:19;98361.84;;;20.47;33.58
49102;BME280;34913;47.520;19.186;2023-03-14T12:23:53;98357.88;;;20.49;32.88
49102;BME280;34913;47.520;19.186;2023-03-14T12:26:25;98349.38;;;20.87;32.98
49102;BME280;34913;47.520;19.186;2023-03-14T12:42:10;98329.00;;;20.08;33.67
49102;BME280;34913;47.520;19.186;2023-03-14T12:44:42;98333.66;;;20.01;32.80
49102;BME280;34913;47.520;19.186;2023-03-14T12:49:50;98336.91;;;19.91;32.98
49102;BME280;34913;47.520;19.186;2023-03-14T12:52:32;98323.84;;;19.76;33.31
49102;BME280;34913;47.520;19.186;2023-03-14T12:57:45;98315.75;;;19.58;33.25
49102;BME280;34913;47.520;19.186;2023-03-14T13:00:24;98306.09;;;19.50;33.66
49102;BME280;34913;47.520;19.186;2023-03-14T13:03:01;98313.81;;;19.47;33.60
49102;BME280;34913;47.520;19.186;2023-03-14T13:05:29;98308.56;;;19.34;34.49
49102;BME280;34913;47.520;19.186;2023-03-14T13:15:38;98300.44;;;19.22;33.56
49102;BME280;34913;47.520;19.186;2023-03-14T13:18:17;98294.75;;;19.12;33.92
49102;BME280;34913;47.520;19.186;2023-03-14T13:21:02;98288.97;;;19.08;34.12
49102;BME280;34913;47.520;19.186;2023-03-14T13:23:30;98287.41;;;19.01;33.63
49102;BME280;34913;47.520;19.186;2023-03-14T13:25:57;98291.59;;;18.96;33.62
49102;BME280;34913;47.520;19.186;2023-03-14T13:28:23;98289.72;;;18.97;34.06
49102;BME280;34913;47.520;19.186;2023-03-14T13:30:50;98292.41;;;18.97;33.59
49102;BME280;34913;47.520;19.186;2023-03-14T13:33:22;98302.03;;;18.86;34.13
49102;BME280;34913;47.520;19.186;2023-03-14T13:35:57;98305.66;;;18.74;34.30
49102;BME280;34913;47.520;19.186;2023-03-14T13:38:25;98294.75;;;18.68;34.23
49102;BME280;34913;47.520;19.186;2023-03-14T13:40:54;98312.09;;;18.73;34.02
49102;BME280;34913;47.520;19.186;2023-03-14T13:43:28;98317.91;;;18.63;34.33
49102;BME280;34913;47.520;19.186;2023-03-14T13:46:19;98316.03;;;18.63;35.18
49102;BME280;34913;47.520;19.186;2023-03-14T13:48:45;98314.16;;;18.64;34.90
49102;BME280;34913;47.520;19.186;2023-03-14T13:51:15;98311.47;;;18.64;34.94
49102;BME280;34913;47.520;19.186;2023-03-14T13:53:46;98306.78;;;18.59;35.88
49102;BME280;34913;47.520;19.186;2023-03-14T13:56:12;98314.25;;;18.57;36.15
49102;BME280;34913;47.520;19.186;2023-03-14T13:58:40;98308.06;;;18.57;38.12
49102;BME280;34913;47.520;19.186;2023-03-14T14:03:55;98308.47;;;18.54;37.98
49102;BME280;34913;47.520;19.186;2023-03-14T14:06:26;98309.97;;;18.50;36.59